Time;durP1;ratioP1;P1;durP2;ratioP2;P2;SDS_P1;SDS_P2;PMS_P1;PMS_P2;Temp;Humidity;BMP_temperature;BMP_pressure;BME280_temperature;BME280_humidity;BME280_pressure;Samples;Min_cycle;Max_cycle;Signal;HPM_P1;HPM_P2
2023/10/05 00:02:11;;;;;;;7.33;2.60;;;;;;;;;;5072739;28;20399;-84
2023/10/05 00:04:41;;;;;;;8.57;2.00;;;;;;;;;;5072760;28;20972;-83
2023/10/05 00:07:22;;;;;;;7.97;2.30;;;;;;;;;;5054952;28;21006;-83
2023/10/05 00:09:48;;;;;;;8.50;2.53;;;;;;;;;;5072812;28;20408;-82
2023/10/05 00:12:22;;;;;;;5.50;1.33;;;;;;;;;;5072358;28;20491;-82
2023/10/05 00:14:55;;;;;;;4.10;1.60;;;;;;;;;;5072858;28;20553;-84
2023/10/05 00:17:22;;;;;;;6.70;1.70;;;;;;;;;;5054662;28;20438;-83
2023/10/05 00:19:48;;;;;;;6.37;1.73;;;;;;;;;;5072616;28;20416;-79
2023/10/05 00:22:14;;;;;;;6.63;2.17;;;;;;;;;;5072605;28;20438;-83
2023/10/05 00:24:41;;;;;;;7.63;1.77;;;;;;;;;;5072473;28;20890;-81
2023/10/05 00:27:12;;;;;;;6.80;1.97;;;;;;;;;;5072161;28;20407;-82
2023/10/05 00:29:42;;;;;;;6.67;1.63;;;;;;;;;;5072533;28;20396;-81
2023/10/05 00:32:14;;;;;;;8.70;2.17;;;;;;;;;;5072520;28;20436;-82
2023/10/05 00:34:41;;;;;;;7.03;2.67;;;;;;;;;;5072338;28;20403;-84
2023/10/05 00:37:07;;;;;;;4.43;1.50;;;;;;;;;;5072245;28;20988;-83
2023/10/05 00:39:33;;;;;;;6.67;1.60;;;;;;;;;;5072295;28;20411;-81
2023/10/05 00:44:32;;;;;;;6.13;2.60;;;;;;;;;;5052205;28;20799;-82
2023/10/05 00:47:01;;;;;;;9.87;1.27;;;;;;;;;;5052293;28;20474;-79
2023/10/05 00:49:37;;;;;;;9.30;2.10;;;;;;;;;;5052204;28;20403;-80
2023/10/05 00:52:14;;;;;;;4.10;1.70;;;;;;;;;;5052311;28;20409;-80
2023/10/05 00:54:44;;;;;;;8.03;1.90;;;;;;;;;;5052175;28;20424;-83
2023/10/05 00:57:14;;;;;;;7.50;1.87;;;;;;;;;;5053848;28;20425;-81
2023/10/05 00:59:40;;;;;;;7.80;1.90;;;;;;;;;;5055805;28;20403;-81
2023/10/05 01:02:14;;;;;;;5.33;2.10;;;;;;;;;;5055699;28;20410;-81
2023/10/05 01:07:18;;;;;;;7.53;1.90;;;;;;;;;;5055646;28;20423;-78
2023/10/05 01:12:36;;;;;;;6.63;1.80;;;;;;;;;;5055444;28;20506;-83
2023/10/05 01:15:05;;;;;;;6.90;1.30;;;;;;;;;;5055347;28;20470;-81
2023/10/05 01:17:31;;;;;;;6.53;1.33;;;;;;;;;;5037459;28;20452;-79
2023/10/05 01:20:07;;;;;;;10.43;2.23;;;;;;;;;;5037457;28;20417;-80
2023/10/05 01:22:35;;;;;;;8.43;2.00;;;;;;;;;;5055349;28;20427;-80
2023/10/05 01:25:04;;;;;;;7.07;0.87;;;;;;;;;;5055005;28;20456;-81
2023/10/05 01:27:30;;;;;;;6.80;1.73;;;;;;;;;;5053699;28;20420;-81
2023/10/05 01:29:56;;;;;;;6.40;1.47;;;;;;;;;;5055214;28;20953;-81
2023/10/05 01:32:26;;;;;;;10.40;1.80;;;;;;;;;;5053748;28;20178;-81
2023/10/05 01:34:52;;;;;;;6.73;1.40;;;;;;;;;;5035108;28;20425;-80
2023/10/05 01:37:22;;;;;;;7.83;1.53;;;;;;;;;;5034913;28;20451;-82
2023/10/05 01:39:48;;;;;;;7.67;1.97;;;;;;;;;;5035860;28;20884;-81
2023/10/05 01:42:14;;;;;;;10.27;2.40;;;;;;;;;;5068245;28;20470;-81
2023/10/05 01:44:46;;;;;;;5.83;1.67;;;;;;;;;;5061739;28;20459;-82
2023/10/05 01:47:22;;;;;;;7.57;1.33;;;;;;;;;;5036980;28;20636;-81
2023/10/05 01:49:50;;;;;;;5.50;1.33;;;;;;;;;;5036885;28;20425;-81
2023/10/05 01:52:16;;;;;;;5.10;1.00;;;;;;;;;;5038219;28;20430;-81
2023/10/05 01:54:43;;;;;;;3.90;0.80;;;;;;;;;;5074810;28;20446;-82
2023/10/05 01:57:09;;;;;;;7.37;1.40;;;;;;;;;;5056378;28;20671;-81
2023/10/05 01:59:37;;;;;;;5.10;1.47;;;;;;;;;;5074686;28;20481;-81
2023/10/05 02:02:10;;;;;;;5.80;1.97;;;;;;;;;;5056660;28;20427;-81
2023/10/05 02:04:49;;;;;;;4.90;1.63;;;;;;;;;;5056513;28;20430;-82
2023/10/05 02:07:15;;;;;;;5.97;1.63;;;;;;;;;;5074484;28;20469;-81
2023/10/05 02:09:41;;;;;;;4.63;1.43;;;;;;;;;;5073897;28;20498;-81
2023/10/05 02:12:08;;;;;;;6.93;1.03;;;;;;;;;;5074773;28;20407;-81
2023/10/05 02:14:41;;;;;;;7.70;1.30;;;;;;;;;;5055810;28;20772;-81
2023/10/05 02:17:07;;;;;;;3.33;0.97;;;;;;;;;;5072329;28;20415;-81
2023/10/05 02:19:36;;;;;;;7.97;1.20;;;;;;;;;;5027926;28;20421;-81
2023/10/05 02:22:11;;;;;;;5.20;1.60;;;;;;;;;;5042885;28;20428;-81
2023/10/05 02:24:40;;;;;;;4.90;0.70;;;;;;;;;;5042423;28;20432;-81
2023/10/05 02:27:11;;;;;;;4.80;0.87;;;;;;;;;;5043789;28;20416;-81
2023/10/05 02:29:40;;;;;;;7.37;1.13;;;;;;;;;;5026834;28;20435;-81
2023/10/05 02:32:10;;;;;;;10.77;1.33;;;;;;;;;;5026815;28;20424;-80
2023/10/05 02:34:42;;;;;;;7.00;1.50;;;;;;;;;;5044551;28;20406;-80
2023/10/05 02:37:11;;;;;;;3.20;1.07;;;;;;;;;;5054862;28;20470;-81
2023/10/05 02:39:37;;;;;;;5.97;1.40;;;;;;;;;;5027990;28;20832;-80
2023/10/05 02:42:06;;;;;;;6.63;1.47;;;;;;;;;;5043570;28;20430;-80
2023/10/05 02:44:35;;;;;;;10.73;1.70;;;;;;;;;;5053026;28;20422;-79
2023/10/05 02:47:01;;;;;;;5.73;1.23;;;;;;;;;;5047976;28;20419;-80
2023/10/05 02:49:35;;;;;;;8.43;1.80;;;;;;;;;;5042005;28;20448;-78
2023/10/05 02:52:04;;;;;;;5.30;1.10;;;;;;;;;;5042353;28;20792;-80
2023/10/05 02:54:30;;;;;;;5.27;0.80;;;;;;;;;;5014803;28;20949;-81
2023/10/05 02:56:56;;;;;;;6.50;1.93;;;;;;;;;;5033311;28;20422;-81
2023/10/05 02:59:26;;;;;;;8.63;1.73;;;;;;;;;;5033544;28;20542;-81
2023/10/05 03:01:54;;;;;;;3.43;1.20;;;;;;;;;;5015884;28;20931;-82
2023/10/05 03:04:22;;;;;;;6.80;2.07;;;;;;;;;;5033565;28;20917;-81
2023/10/05 03:06:52;;;;;;;8.07;1.70;;;;;;;;;;5033430;28;20428;-81
2023/10/05 03:09:18;;;;;;;4.80;0.80;;;;;;;;;;5015809;28;20407;-80
2023/10/05 03:11:47;;;;;;;9.80;1.57;;;;;;;;;;5033344;28;20449;-81
2023/10/05 03:14:16;;;;;;;8.43;2.47;;;;;;;;;;5033444;28;20414;-81
2023/10/05 03:16:48;;;;;;;5.27;1.17;;;;;;;;;;5015601;28;20417;-79
2023/10/05 03:19:18;;;;;;;9.47;1.70;;;;;;;;;;5033310;28;20410;-79
2023/10/05 03:21:45;;;;;;;6.97;1.30;;;;;;;;;;5032016;28;20890;-80
2023/10/05 03:24:14;;;;;;;9.23;2.37;;;;;;;;;;5031915;28;20966;-80
2023/10/05 03:26:41;;;;;;;6.50;1.77;;;;;;;;;;5032749;28;20504;-78
2023/10/05 03:29:08;;;;;;;5.80;1.33;;;;;;;;;;5033216;28;20438;-80
2023/10/05 03:31:38;;;;;;;5.50;1.60;;;;;;;;;;5033135;28;20500;-79
2023/10/05 03:34:08;;;;;;;4.73;1.47;;;;;;;;;;5033026;28;20517;-78
2023/10/05 03:36:35;;;;;;;4.90;0.80;;;;;;;;;;5032859;28;20847;-80
2023/10/05 03:39:06;;;;;;;4.60;1.80;;;;;;;;;;5033033;28;20449;-80
2023/10/05 03:41:32;;;;;;;5.23;1.47;;;;;;;;;;5032729;28;20447;-80
2023/10/05 03:44:02;;;;;;;5.73;1.63;;;;;;;;;;5032965;28;20409;-81
2023/10/05 03:46:28;;;;;;;6.27;1.50;;;;;;;;;;5033034;28;20468;-78
2023/10/05 03:49:02;;;;;;;7.30;1.70;;;;;;;;;;5032982;28;20415;-81
2023/10/05 03:51:29;;;;;;;3.27;1.13;;;;;;;;;;5032959;28;20412;-79
2023/10/05 03:53:55;;;;;;;8.20;1.90;;;;;;;;;;5032855;28;20771;-81
2023/10/05 03:56:23;;;;;;;5.70;1.87;;;;;;;;;;5032508;28;20919;-79
2023/10/05 03:58:49;;;;;;;8.30;1.77;;;;;;;;;;5032826;28;20424;-80
2023/10/05 04:01:17;;;;;;;7.03;1.73;;;;;;;;;;5031482;28;20920;-80
2023/10/05 04:03:44;;;;;;;6.73;1.60;;;;;;;;;;5031521;28;20502;-79
2023/10/05 04:06:25;;;;;;;8.63;2.90;;;;;;;;;;5031450;28;20486;-81
2023/10/05 04:08:57;;;;;;;7.17;2.10;;;;;;;;;;5031534;28;20782;-81
2023/10/05 04:11:23;;;;;;;6.33;1.70;;;;;;;;;;5031520;28;20457;-81
2023/10/05 04:13:51;;;;;;;4.83;1.43;;;;;;;;;;5031783;28;20410;-80
2023/10/05 04:16:21;;;;;;;7.93;2.30;;;;;;;;;;5032676;28;20504;-81
2023/10/05 04:18:47;;;;;;;3.43;2.30;;;;;;;;;;5032679;28;20895;-80
2023/10/05 04:21:15;;;;;;;3.90;1.23;;;;;;;;;;5032611;28;20470;-80
2023/10/05 04:23:42;;;;;;;7.67;2.07;;;;;;;;;;5032555;28;20918;-82
2023/10/05 04:26:09;;;;;;;5.50;1.83;;;;;;;;;;5031317;28;20473;-80
2023/10/05 04:28:35;;;;;;;6.90;2.00;;;;;;;;;;5032923;28;20890;-80
2023/10/05 04:31:06;;;;;;;6.23;1.73;;;;;;;;;;5032998;28;20445;-80
2023/10/05 04:33:32;;;;;;;6.20;1.63;;;;;;;;;;5036560;28;20762;-80
2023/10/05 04:35:58;;;;;;;5.37;1.70;;;;;;;;;;5035618;28;20508;-84
2023/10/05 04:38:25;;;;;;;10.13;2.23;;;;;;;;;;5036297;28;20218;-82
2023/10/05 04:40:54;;;;;;;7.07;1.90;;;;;;;;;;5037264;28;20416;-81
2023/10/05 04:43:21;;;;;;;6.67;1.87;;;;;;;;;;5035650;28;20800;-81
2023/10/05 04:45:47;;;;;;;10.30;2.03;;;;;;;;;;5036861;28;20469;-81
2023/10/05 04:48:13;;;;;;;11.70;1.90;;;;;;;;;;5037125;28;20424;-84
2023/10/05 04:50:42;;;;;;;12.50;1.77;;;;;;;;;;5036634;28;20470;-82
2023/10/05 04:53:09;;;;;;;10.20;2.00;;;;;;;;;;5038034;28;20500;-81
2023/10/05 04:55:41;;;;;;;5.33;1.13;;;;;;;;;;5036634;28;20780;-81
2023/10/05 04:58:24;;;;;;;7.53;1.37;;;;;;;;;;5035493;28;20919;-83
2023/10/05 05:00:54;;;;;;;7.07;1.67;;;;;;;;;;5036367;28;20410;-82
2023/10/05 05:08:35;;;;;;;9.60;1.63;;;;;;;;;;5036349;28;20771;-81
2023/10/05 05:11:02;;;;;;;5.30;1.07;;;;;;;;;;5035716;28;20422;-82
2023/10/05 05:13:28;;;;;;;5.63;1.27;;;;;;;;;;5036262;28;20513;-82
2023/10/05 05:15:54;;;;;;;6.30;1.67;;;;;;;;;;5035696;28;20451;-80
2023/10/05 05:18:21;;;;;;;11.57;2.37;;;;;;;;;;5036282;28;20418;-80
2023/10/05 05:20:47;;;;;;;5.77;1.70;;;;;;;;;;5036081;28;20460;-89
2023/10/05 05:23:16;;;;;;;6.83;1.60;;;;;;;;;;5036760;28;20912;-80
2023/10/05 05:25:42;;;;;;;7.47;1.43;;;;;;;;;;5035137;28;20530;-82
2023/10/05 05:28:09;;;;;;;8.67;1.60;;;;;;;;;;5035251;28;20886;-86
2023/10/05 05:30:39;;;;;;;12.87;1.43;;;;;;;;;;5035670;28;20477;-84
2023/10/05 05:33:09;;;;;;;7.77;1.13;;;;;;;;;;5035244;28;20402;-82
2023/10/05 05:35:36;;;;;;;9.07;1.70;;;;;;;;;;5036639;28;20407;-89
2023/10/05 05:38:02;;;;;;;5.30;0.60;;;;;;;;;;5036320;28;20507;-89
2023/10/05 05:40:29;;;;;;;6.43;1.30;;;;;;;;;;5035842;28;20417;-79
2023/10/05 05:42:56;;;;;;;6.20;1.40;;;;;;;;;;5034960;28;20963;-89
2023/10/05 05:45:22;;;;;;;13.50;2.67;;;;;;;;;;5036895;28;20849;-88
2023/10/05 05:47:48;;;;;;;6.37;2.20;;;;;;;;;;5036885;28;20475;-81
2023/10/05 05:50:17;;;;;;;4.40;1.20;;;;;;;;;;5037810;28;20417;-88
2023/10/05 05:52:47;;;;;;;4.90;2.00;;;;;;;;;;5057138;28;20426;-87
2023/10/05 05:55:22;;;;;;;7.87;1.13;;;;;;;;;;5055164;28;20937;-81
2023/10/05 05:57:51;;;;;;;6.63;1.43;;;;;;;;;;5058051;28;20512;-82
2023/10/05 06:00:20;;;;;;;5.80;1.00;;;;;;;;;;5040325;28;20428;-80
2023/10/05 06:02:46;;;;;;;6.20;1.80;;;;;;;;;;5054952;28;20915;-85
2023/10/05 06:05:13;;;;;;;5.07;1.40;;;;;;;;;;5057621;28;20463;-87
2023/10/05 06:07:39;;;;;;;9.30;2.33;;;;;;;;;;5057310;28;20428;-80
2023/10/05 06:10:12;;;;;;;8.30;1.23;;;;;;;;;;5033734;28;20478;-78
2023/10/05 06:12:42;;;;;;;6.67;1.70;;;;;;;;;;5046667;28;20852;-80
2023/10/05 06:15:15;;;;;;;6.73;1.63;;;;;;;;;;5027369;28;20409;-80
2023/10/05 06:17:41;;;;;;;5.07;1.77;;;;;;;;;;5044292;28;20814;-81
2023/10/05 06:20:14;;;;;;;8.43;2.20;;;;;;;;;;5047479;28;20449;-80
2023/10/05 06:22:44;;;;;;;9.77;2.00;;;;;;;;;;5043902;28;20408;-89
2023/10/05 06:25:11;;;;;;;10.93;2.30;;;;;;;;;;5024952;28;20456;-90
2023/10/05 06:27:37;;;;;;;12.00;2.10;;;;;;;;;;5044709;28;20418;-79
2023/10/05 06:30:06;;;;;;;13.43;1.90;;;;;;;;;;5048888;28;20411;-87
2023/10/05 06:32:31;;;;;;;10.70;1.87;;;;;;;;;;5055688;28;20423;-91
2023/10/05 06:34:58;;;;;;;8.77;2.00;;;;;;;;;;5036243;28;20492;-85
2023/10/05 06:37:25;;;;;;;11.47;2.20;;;;;;;;;;5053924;28;20221;-82
2023/10/05 06:39:53;;;;;;;7.20;1.40;;;;;;;;;;5053950;28;20413;-89
2023/10/05 06:42:19;;;;;;;7.13;1.63;;;;;;;;;;5054891;28;20416;-91
2023/10/05 06:44:45;;;;;;;8.77;2.00;;;;;;;;;;5054127;28;20412;-88
2023/10/05 06:49:56;;;;;;;9.70;2.93;;;;;;;;;;5034576;28;20979;-82
2023/10/05 06:52:25;;;;;;;6.70;1.87;;;;;;;;;;5037349;28;20446;-81
2023/10/05 06:54:51;;;;;;;6.67;1.23;;;;;;;;;;5044389;28;20184;-82
2023/10/05 06:57:17;;;;;;;9.53;2.00;;;;;;;;;;5043219;28;20821;-81
2023/10/05 06:59:43;;;;;;;9.37;1.90;;;;;;;;;;5045322;28;20170;-90
2023/10/05 07:02:09;;;;;;;6.67;1.90;;;;;;;;;;5042421;28;20182;-91
2023/10/05 07:04:35;;;;;;;7.77;1.87;;;;;;;;;;5044264;28;20424;-84
2023/10/05 07:07:04;;;;;;;8.53;1.70;;;;;;;;;;5026770;28;20430;-83
2023/10/05 07:09:33;;;;;;;12.43;2.37;;;;;;;;;;5027165;28;20432;-91
2023/10/05 07:12:03;;;;;;;9.10;2.73;;;;;;;;;;5037921;28;20459;-84
2023/10/05 07:14:28;;;;;;;7.57;1.93;;;;;;;;;;5033448;28;20529;-81
2023/10/05 07:16:55;;;;;;;5.63;1.30;;;;;;;;;;5043005;28;20506;-83
2023/10/05 07:19:21;;;;;;;2.43;0.87;;;;;;;;;;5034821;28;20423;-79
2023/10/05 07:21:50;;;;;;;8.30;2.43;;;;;;;;;;5035418;28;20414;-82
2023/10/05 07:24:19;;;;;;;10.00;2.17;;;;;;;;;;5035851;28;20418;-81
2023/10/05 07:26:45;;;;;;;8.00;2.80;;;;;;;;;;5052926;28;20476;-87
2023/10/05 07:29:14;;;;;;;8.20;1.60;;;;;;;;;;5053455;28;20908;-83
2023/10/05 07:31:43;;;;;;;8.73;2.47;;;;;;;;;;5053694;28;20513;-82
2023/10/05 07:34:09;;;;;;;6.90;1.47;;;;;;;;;;5053804;28;20473;-88
2023/10/05 07:36:35;;;;;;;5.77;1.40;;;;;;;;;;5035214;28;20448;-82
2023/10/05 07:39:01;;;;;;;10.03;2.10;;;;;;;;;;5053281;28;20258;-81
2023/10/05 07:41:29;;;;;;;8.80;2.57;;;;;;;;;;5040982;28;20516;-82
2023/10/05 07:43:55;;;;;;;14.70;2.83;;;;;;;;;;5035501;28;20412;-83
2023/10/05 07:46:20;;;;;;;7.30;1.93;;;;;;;;;;5049482;28;20472;-82
2023/10/05 07:48:47;;;;;;;8.43;2.30;;;;;;;;;;5053364;28;20460;-80
2023/10/05 07:51:16;;;;;;;9.13;3.23;;;;;;;;;;5053698;28;20182;-79
2023/10/05 07:53:43;;;;;;;7.20;2.77;;;;;;;;;;5054555;28;20975;-79
2023/10/05 07:56:09;;;;;;;6.80;2.33;;;;;;;;;;5057333;28;20433;-79
2023/10/05 07:58:35;;;;;;;10.70;2.87;;;;;;;;;;5053786;28;20413;-79
2023/10/05 08:01:01;;;;;;;5.93;2.57;;;;;;;;;;5056385;28;20426;-79
2023/10/05 08:03:27;;;;;;;4.78;2.38;;;;;;;;;;5053931;28;20420;-80
2023/10/05 08:05:53;;;;;;;4.50;2.07;;;;;;;;;;5038525;28;20210;-80
2023/10/05 08:08:23;;;;;;;2.13;1.17;;;;;;;;;;5062380;28;20405;-79
2023/10/05 08:10:49;;;;;;;5.20;1.73;;;;;;;;;;5058118;28;20405;-77
2023/10/05 08:13:16;;;;;;;5.33;1.17;;;;;;;;;;5040289;28;20413;-79
2023/10/05 08:15:46;;;;;;;3.83;1.83;;;;;;;;;;5057465;28;20425;-79
2023/10/05 08:18:11;;;;;;;5.83;1.67;;;;;;;;;;5060505;28;20916;-88
2023/10/05 08:20:37;;;;;;;3.33;1.33;;;;;;;;;;5056884;28;20421;-79
2023/10/05 08:23:04;;;;;;;3.47;1.27;;;;;;;;;;5057026;28;20413;-78
2023/10/05 08:25:30;;;;;;;4.43;1.17;;;;;;;;;;5039237;28;20472;-85
2023/10/05 08:27:56;;;;;;;5.60;1.13;;;;;;;;;;5057772;28;20408;-90
2023/10/05 08:30:24;;;;;;;3.17;0.90;;;;;;;;;;5057947;28;20420;-89
2023/10/05 08:32:50;;;;;;;4.20;1.30;;;;;;;;;;5056729;28;20405;-79
2023/10/05 08:35:18;;;;;;;3.23;0.80;;;;;;;;;;5057007;28;20755;-80
2023/10/05 08:37:52;;;;;;;3.73;1.20;;;;;;;;;;5058338;28;20464;-79
2023/10/05 08:43:10;;;;;;;2.47;0.90;;;;;;;;;;5056970;28;20920;-84
2023/10/05 08:45:47;;;;;;;5.10;0.83;;;;;;;;;;5057013;28;20471;-90
2023/10/05 08:48:15;;;;;;;3.50;1.03;;;;;;;;;;5057558;28;20396;-87
2023/10/05 08:50:42;;;;;;;2.50;0.60;;;;;;;;;;5056450;28;20471;-79
2023/10/05 08:53:12;;;;;;;3.80;0.77;;;;;;;;;;5057535;28;20400;-79
2023/10/05 08:55:39;;;;;;;2.23;0.93;;;;;;;;;;5057777;28;20421;-81
2023/10/05 08:58:05;;;;;;;2.27;0.40;;;;;;;;;;5057571;28;20394;-79
2023/10/05 09:00:40;;;;;;;2.57;0.50;;;;;;;;;;5056988;28;20505;-85
2023/10/05 09:03:28;;;;;;;2.80;0.37;;;;;;;;;;5056955;28;20441;-79
2023/10/05 09:06:21;;;;;;;1.90;0.50;;;;;;;;;;5058326;28;20532;-82
2023/10/05 09:08:51;;;;;;;3.33;0.23;;;;;;;;;;5055553;28;20855;-87
2023/10/05 09:11:20;;;;;;;1.10;0.20;;;;;;;;;;5056319;28;20416;-79
2023/10/05 09:13:46;;;;;;;2.43;0.40;;;;;;;;;;5059206;28;20413;-79
2023/10/05 09:16:15;;;;;;;4.17;0.30;;;;;;;;;;5059150;28;20433;-90
2023/10/05 09:18:47;;;;;;;1.63;0.40;;;;;;;;;;5061669;28;20433;-89
2023/10/05 09:21:18;;;;;;;2.00;0.27;;;;;;;;;;5061376;28;20408;-80
2023/10/05 09:23:44;;;;;;;1.10;0.20;;;;;;;;;;5057706;28;20401;-82
2023/10/05 09:26:33;;;;;;;1.37;0.20;;;;;;;;;;5038631;28;20970;-86
2023/10/05 09:29:20;;;;;;;0.50;0.20;;;;;;;;;;5058194;28;20745;-86
2023/10/05 09:31:50;;;;;;;1.27;0.20;;;;;;;;;;5056183;28;20410;-79
2023/10/05 09:34:17;;;;;;;1.67;0.20;;;;;;;;;;5055189;28;20411;-84
2023/10/05 09:36:43;;;;;;;0.90;0.20;;;;;;;;;;5059766;28;20503;-82
2023/10/05 09:39:10;;;;;;;2.17;0.30;;;;;;;;;;5075037;28;20630;-82
2023/10/05 09:41:37;;;;;;;1.27;0.30;;;;;;;;;;5074697;28;20423;-83
2023/10/05 09:44:07;;;;;;;1.00;0.20;;;;;;;;;;5074881;28;20413;-81
2023/10/05 09:46:35;;;;;;;3.43;1.90;;;;;;;;;;5074806;28;20894;-83
2023/10/05 09:49:02;;;;;;;2.73;0.30;;;;;;;;;;5074827;28;20407;-84
2023/10/05 09:51:28;;;;;;;2.07;0.47;;;;;;;;;;5074714;28;20454;-85
2023/10/05 09:53:55;;;;;;;3.07;0.27;;;;;;;;;;5063002;28;20421;-82
2023/10/05 09:56:21;;;;;;;3.07;0.40;;;;;;;;;;5054257;28;20177;-82
2023/10/05 09:58:47;;;;;;;2.73;0.30;;;;;;;;;;5036744;28;20415;-83
2023/10/05 10:01:20;;;;;;;1.63;0.30;;;;;;;;;;5054492;28;20450;-83
2023/10/05 10:03:46;;;;;;;1.00;0.23;;;;;;;;;;5036660;28;20522;-84
2023/10/05 10:06:17;;;;;;;1.20;0.20;;;;;;;;;;5036501;28;20478;-82
2023/10/05 10:08:55;;;;;;;1.33;0.20;;;;;;;;;;5054413;28;20798;-84
2023/10/05 10:11:27;;;;;;;1.30;0.30;;;;;;;;;;5053885;28;20408;-84
2023/10/05 10:14:00;;;;;;;1.43;0.27;;;;;;;;;;5054304;28;20758;-83
2023/10/05 10:16:27;;;;;;;1.93;0.20;;;;;;;;;;5036406;28;20784;-83
2023/10/05 10:19:04;;;;;;;1.30;0.30;;;;;;;;;;5054115;28;20818;-84
2023/10/05 10:21:33;;;;;;;1.00;0.20;;;;;;;;;;5054254;28;20412;-83
2023/10/05 10:24:03;;;;;;;2.60;0.20;;;;;;;;;;5054054;28;20415;-84
2023/10/05 10:26:30;;;;;;;2.30;0.20;;;;;;;;;;5035756;28;20909;-84
2023/10/05 10:28:57;;;;;;;1.53;0.30;;;;;;;;;;5053677;28;20404;-83
2023/10/05 10:31:42;;;;;;;2.10;0.30;;;;;;;;;;5054509;28;20901;-80
2023/10/05 10:34:18;;;;;;;2.00;0.33;;;;;;;;;;5060492;28;20419;-82
2023/10/05 10:36:51;;;;;;;4.37;0.50;;;;;;;;;;5074250;28;20887;-85
2023/10/05 10:39:24;;;;;;;3.53;0.63;;;;;;;;;;5074439;28;20407;-83
2023/10/05 10:42:18;;;;;;;3.33;0.43;;;;;;;;;;5074256;28;20535;-82
2023/10/05 10:47:22;;;;;;;2.87;0.43;;;;;;;;;;5074345;28;20427;-84
2023/10/05 10:50:11;;;;;;;3.43;0.50;;;;;;;;;;5056331;28;20460;-83
2023/10/05 10:52:40;;;;;;;2.60;0.57;;;;;;;;;;5055722;28;20484;-84
2023/10/05 10:55:14;;;;;;;3.60;0.93;;;;;;;;;;5073159;28;20445;-83
2023/10/05 10:57:42;;;;;;;4.07;0.57;;;;;;;;;;5073360;28;20415;-82
2023/10/05 11:02:55;;;;;;;3.20;0.67;;;;;;;;;;5053397;28;20415;-84
2023/10/05 11:05:21;;;;;;;4.57;0.83;;;;;;;;;;5053156;28;20468;-83
2023/10/05 11:07:49;;;;;;;3.33;0.83;;;;;;;;;;5053230;28;20891;-83
2023/10/05 11:10:18;;;;;;;4.23;0.67;;;;;;;;;;5046984;28;20448;-84
2023/10/05 11:12:53;;;;;;;4.00;0.70;;;;;;;;;;5053403;28;20404;-85
2023/10/05 11:15:19;;;;;;;5.60;0.90;;;;;;;;;;5053377;28;20486;-84
2023/10/05 11:17:47;;;;;;;5.00;0.70;;;;;;;;;;5053153;28;20477;-84
2023/10/05 11:20:28;;;;;;;4.63;0.60;;;;;;;;;;5053175;28;20415;-83
2023/10/05 11:23:01;;;;;;;3.80;0.57;;;;;;;;;;5053249;28;20409;-83
2023/10/05 11:25:36;;;;;;;5.57;0.80;;;;;;;;;;5052661;28;20463;-83
2023/10/05 11:28:07;;;;;;;4.50;0.70;;;;;;;;;;5053059;28;20411;-83
2023/10/05 11:30:45;;;;;;;6.93;0.90;;;;;;;;;;5052976;28;20403;-83
2023/10/05 11:33:17;;;;;;;4.27;0.83;;;;;;;;;;5035327;28;20425;-83
2023/10/05 11:35:51;;;;;;;6.50;1.00;;;;;;;;;;5035064;28;20419;-82
2023/10/05 11:38:19;;;;;;;6.17;0.63;;;;;;;;;;5052673;28;20473;-84
2023/10/05 11:40:53;;;;;;;6.30;0.60;;;;;;;;;;5052438;28;20465;-83
2023/10/05 11:43:20;;;;;;;7.70;1.17;;;;;;;;;;5052859;28;20418;-83
2023/10/05 11:45:55;;;;;;;4.60;1.27;;;;;;;;;;5034915;28;20817;-84
2023/10/05 11:48:22;;;;;;;3.80;1.13;;;;;;;;;;5034314;28;20423;-83
2023/10/05 11:50:54;;;;;;;4.90;0.80;;;;;;;;;;5052538;28;20408;-86
2023/10/05 11:53:24;;;;;;;4.43;1.03;;;;;;;;;;5053460;28;20415;-84
2023/10/05 11:55:50;;;;;;;4.13;0.47;;;;;;;;;;5052703;28;20442;-85
2023/10/05 11:58:22;;;;;;;3.60;0.50;;;;;;;;;;5035197;28;20420;-82
2023/10/05 12:00:47;;;;;;;4.37;0.53;;;;;;;;;;5053131;28;20419;-83
2023/10/05 12:03:16;;;;;;;3.03;0.80;;;;;;;;;;5053230;28;20412;-82
2023/10/05 12:05:42;;;;;;;5.60;0.90;;;;;;;;;;5053077;28;20476;-83
2023/10/05 12:08:12;;;;;;;4.83;0.77;;;;;;;;;;5052563;28;20451;-81
2023/10/05 12:10:38;;;;;;;2.47;0.50;;;;;;;;;;5051762;28;20428;-80
2023/10/05 12:13:04;;;;;;;3.20;0.73;;;;;;;;;;5050951;28;20550;-78
2023/10/05 12:15:32;;;;;;;5.13;1.30;;;;;;;;;;5050933;28;20453;-80
2023/10/05 12:17:58;;;;;;;3.70;0.50;;;;;;;;;;5051793;28;20534;-79
2023/10/05 12:20:24;;;;;;;3.70;0.90;;;;;;;;;;5052097;28;20412;-80
2023/10/05 12:22:50;;;;;;;3.03;0.70;;;;;;;;;;5049815;28;20178;-82
2023/10/05 12:25:24;;;;;;;3.57;1.20;;;;;;;;;;5051880;28;20479;-82
2023/10/05 12:27:51;;;;;;;7.60;1.53;;;;;;;;;;5052368;28;20531;-83
2023/10/05 12:30:17;;;;;;;4.87;0.67;;;;;;;;;;5052098;28;20846;-83
2023/10/05 12:32:45;;;;;;;4.10;1.07;;;;;;;;;;5052419;28;20415;-83
2023/10/05 12:35:13;;;;;;;2.67;0.70;;;;;;;;;;5034526;28;20469;-82
2023/10/05 12:37:39;;;;;;;2.43;0.60;;;;;;;;;;5052131;28;20464;-80
2023/10/05 12:40:17;;;;;;;4.57;0.60;;;;;;;;;;5051849;28;20413;-84
2023/10/05 12:42:51;;;;;;;3.53;0.60;;;;;;;;;;5052390;28;20408;-85
2023/10/05 12:45:22;;;;;;;3.13;0.40;;;;;;;;;;5052287;28;20475;-85
2023/10/05 12:47:55;;;;;;;2.10;0.30;;;;;;;;;;5034329;28;20420;-83
2023/10/05 12:50:22;;;;;;;2.83;0.60;;;;;;;;;;5051761;28;20458;-83
2023/10/05 12:52:51;;;;;;;6.10;1.30;;;;;;;;;;5053696;28;20427;-83
2023/10/05 12:55:22;;;;;;;2.90;0.80;;;;;;;;;;5055450;28;20411;-83
2023/10/05 12:57:50;;;;;;;4.03;0.40;;;;;;;;;;5055644;28;20785;-83
2023/10/05 13:00:19;;;;;;;2.93;1.27;;;;;;;;;;5055714;28;20458;-83
2023/10/05 13:02:52;;;;;;;2.97;0.60;;;;;;;;;;5055621;28;20432;-83
2023/10/05 13:05:20;;;;;;;2.40;0.30;;;;;;;;;;5055501;28;20454;-84
2023/10/05 13:07:47;;;;;;;2.07;0.40;;;;;;;;;;5055652;28;20556;-84
2023/10/05 13:10:26;;;;;;;2.23;0.30;;;;;;;;;;5055972;28;20481;-86
2023/10/05 13:12:52;;;;;;;2.73;0.30;;;;;;;;;;5031078;28;20429;-89
2023/10/05 13:15:24;;;;;;;3.70;0.43;;;;;;;;;;5040492;28;20418;-89
2023/10/05 13:17:58;;;;;;;2.90;0.63;;;;;;;;;;5076652;28;20444;-85
2023/10/05 13:20:24;;;;;;;2.40;0.30;;;;;;;;;;5076348;28;20491;-83
2023/10/05 13:22:53;;;;;;;2.10;0.30;;;;;;;;;;5075881;28;20419;-85
2023/10/05 13:25:22;;;;;;;5.00;0.70;;;;;;;;;;5074710;28;20453;-81
2023/10/05 13:27:48;;;;;;;3.13;0.97;;;;;;;;;;5075512;28;20418;-82
2023/10/05 13:30:22;;;;;;;4.30;0.27;;;;;;;;;;5075095;28;20398;-80
2023/10/05 13:32:48;;;;;;;5.50;0.80;;;;;;;;;;5074760;28;20433;-84
2023/10/05 13:35:18;;;;;;;3.57;0.60;;;;;;;;;;5074929;28;20756;-85
2023/10/05 13:37:44;;;;;;;2.27;0.30;;;;;;;;;;5074045;28;20488;-81
2023/10/05 13:40:15;;;;;;;3.83;0.40;;;;;;;;;;5035135;28;20887;-80
2023/10/05 13:42:43;;;;;;;3.87;0.30;;;;;;;;;;5035227;28;20409;-81
2023/10/05 13:45:13;;;;;;;5.00;0.93;;;;;;;;;;5035898;28;20454;-82
2023/10/05 13:47:40;;;;;;;3.93;0.37;;;;;;;;;;5034782;28;20516;-81
2023/10/05 13:50:08;;;;;;;3.07;0.33;;;;;;;;;;5035575;28;20417;-81
2023/10/05 13:52:38;;;;;;;5.77;1.00;;;;;;;;;;5033998;28;20436;-82
2023/10/05 13:55:04;;;;;;;3.80;0.43;;;;;;;;;;5034701;28;20413;-82
2023/10/05 13:57:30;;;;;;;2.87;0.70;;;;;;;;;;5046624;28;20413;-83
2023/10/05 13:59:56;;;;;;;2.70;0.40;;;;;;;;;;5054208;28;20785;-82
2023/10/05 14:02:22;;;;;;;6.70;0.60;;;;;;;;;;5054885;28;20405;-87
2023/10/05 14:04:48;;;;;;;3.87;0.87;;;;;;;;;;5053870;28;20201;-81
2023/10/05 14:07:14;;;;;;;3.53;0.83;;;;;;;;;;5054674;28;20189;-87
2023/10/05 14:09:47;;;;;;;2.93;0.67;;;;;;;;;;5054216;28;20408;-84
2023/10/05 14:12:14;;;;;;;3.80;0.47;;;;;;;;;;5053524;28;20232;-82
2023/10/05 14:14:40;;;;;;;2.20;0.30;;;;;;;;;;5054196;28;20502;-81
2023/10/05 14:17:10;;;;;;;4.37;0.60;;;;;;;;;;5054345;28;20510;-81
2023/10/05 14:19:36;;;;;;;2.80;0.57;;;;;;;;;;5054497;28;20427;-82
2023/10/05 14:22:08;;;;;;;4.37;0.60;;;;;;;;;;5054693;28;20424;-81
2023/10/05 14:24:36;;;;;;;3.63;0.57;;;;;;;;;;5054187;28;20170;-83
2023/10/05 14:27:04;;;;;;;2.47;0.60;;;;;;;;;;5059198;28;20495;-81
2023/10/05 14:29:36;;;;;;;3.40;0.47;;;;;;;;;;5055611;28;20461;-82
2023/10/05 14:32:04;;;;;;;4.27;0.53;;;;;;;;;;5054803;28;20408;-82
2023/10/05 14:34:34;;;;;;;4.37;1.03;;;;;;;;;;5045745;28;20481;-82
2023/10/05 14:37:04;;;;;;;5.83;0.60;;;;;;;;;;5053298;28;20451;-87
2023/10/05 14:39:33;;;;;;;5.33;0.73;;;;;;;;;;5052378;28;20430;-82
2023/10/05 14:42:00;;;;;;;2.03;0.40;;;;;;;;;;5016205;28;20424;-83
2023/10/05 14:44:29;;;;;;;4.63;0.57;;;;;;;;;;5055003;28;20498;-82
2023/10/05 14:46:57;;;;;;;5.37;0.97;;;;;;;;;;5073691;28;20509;-84
2023/10/05 14:49:23;;;;;;;1.80;0.30;;;;;;;;;;5073575;28;20985;-82
2023/10/05 14:51:52;;;;;;;3.43;0.47;;;;;;;;;;5073556;28;20510;-82
2023/10/05 14:54:21;;;;;;;2.53;0.40;;;;;;;;;;5073262;28;20230;-82
2023/10/05 14:56:47;;;;;;;3.03;0.30;;;;;;;;;;5073486;28;20424;-82
2023/10/05 14:59:13;;;;;;;3.13;0.30;;;;;;;;;;5073342;28;20415;-81
2023/10/05 15:01:40;;;;;;;3.80;0.50;;;;;;;;;;5073268;28;20172;-84
2023/10/05 15:04:06;;;;;;;1.60;0.20;;;;;;;;;;5073249;28;20422;-81
2023/10/05 15:06:32;;;;;;;5.60;0.63;;;;;;;;;;5073134;28;20501;-81
2023/10/05 15:08:59;;;;;;;5.60;0.80;;;;;;;;;;5054902;28;20509;-82
2023/10/05 15:11:26;;;;;;;1.80;0.20;;;;;;;;;;5073050;28;20422;-82
2023/10/05 15:13:53;;;;;;;4.40;0.40;;;;;;;;;;5073204;28;20497;-83
2023/10/05 15:16:19;;;;;;;5.07;0.53;;;;;;;;;;5072850;28;20428;-85
2023/10/05 15:18:45;;;;;;;2.40;0.60;;;;;;;;;;5055037;28;20516;-82